Terminal Aerodrome Forecast
Issued by NWS

Home | Current Version | Previous Version | Text Only | Print | Product List | Glossary On
Versions: 1 2 3 4 5 6 7 8 9 10 11 12 13 14 15 16 17 18 19 20 21 22
000
FTUS41 KCAR 231553 AAB
TAFHUL
TAF AMD
KHUL 231553Z 2316/2412 22008KT P6SM BKN015
     FM231700 24008KT P6SM SCT040
     FM231900 27007KT P6SM SCT060
     FM240200 VRB02KT P6SM SCT120
      TEMPO 2408/2411 4SM BR=

USA.gov is the U.S. government's official web portal to all federal, state and local government web resources and services.